Data for 03/01/2013

Time Sea-Level Adjusted Pressure Absolute Pressure Temperature Relative Humidity Dew Point   
(mb) (inHg) (mb) (inHg) (C) (F) (%) (C) (F)
00:05 1026 30.3 855 25.25 1.2 34.2 68 -4 24.8
00:10 1026 30.3 855 25.25 1.4 34.4 69 -3.6 25.5
00:15 1026 30.3 855 25.25 1.3 34.4 72 -3.3 26.1
00:20 1026 30.3 855 25.25 1.3 34.3 73 -3 26.6
00:25 1026 30.3 855 25.25 1.3 34.3 73 -3 26.6
00:30 1026 30.3 855 25.25 1.3 34.3 74 -2.9 26.8
00:35 1026 30.3 855 25.25 1.2 34.2 74 -3 26.6
00:40 1026 30.3 855 25.25 1.2 34.1 74 -3.1 26.5
00:45 1025 30.27 855 25.25 1.1 34 74 -3 26.6
00:50 1025 30.27 854 25.22 1.1 34 75 -2.8 26.9
00:55 1025 30.27 854 25.22 1.2 34.1 75 -2.8 27
01:00 1025 30.27 854 25.22 1.2 34.1 75 -2.7 27.1
01:05 1025 30.27 854 25.22 1 33.9 75 -2.8 26.9
01:10 1025 30.27 854 25.22 0.8 33.4 77 -2.9 26.8
01:15 1025 30.27 854 25.22 0.7 33.3 77 -2.9 26.8
01:20 1025 30.27 854 25.22 0.6 33.1 75 -3.3 26.1
01:25 1025 30.27 854 25.22 0.5 33 75 -3.4 25.8
01:30 1025 30.27 854 25.22 0.5 32.9 74 -3.5 25.6
01:35 1025 30.27 854 25.22 0.5 32.9 73 -3.7 25.3
01:40 1025 30.27 854 25.22 0.5 32.9 74 -3.6 25.4
01:45 1025 30.27 854 25.22 0.6 33 73 -3.7 25.4
01:50 1025 30.27 854 25.22 0.6 33 73 -3.8 25.2
01:55 1025 30.27 854 25.22 0.5 33 74 -3.6 25.4
02:00 1025 30.27 854 25.22 0.6 33.1 74 -3.5 25.7
02:05 1025 30.27 854 25.22 0.6 33.1 75 -3.3 26
02:10 1025 30.27 854 25.22 0.5 32.9 77 -3.1 26.3
02:15 1025 30.27 854 25.22 0.4 32.7 77 -3.2 26.3
02:20 1025 30.27 854 25.22 0.4 32.7 77 -3.1 26.3
02:25 1025 30.27 854 25.22 0.4 32.7 77 -3.1 26.4
02:30 1025 30.27 854 25.22 0.4 32.7 77 -3.1 26.4
02:35 1025 30.27 854 25.22 0.6 33.1 76 -3.1 26.4
02:40 1025 30.27 855 25.25 0.6 33.1 77 -2.9 26.7
02:45 1025 30.27 855 25.25 0.6 33.1 77 -2.9 26.7
02:50 1025 30.27 855 25.25 0.4 32.7 78 -3 26.7
02:55 1026 30.3 855 25.25 0.4 32.7 78 -2.9 26.7
03:00 1026 30.3 855 25.25 0.4 32.8 78 -3 26.6
03:05 1026 30.3 855 25.25 0.5 32.9 78 -3 26.7
03:10 1026 30.3 855 25.25 0.5 33 77 -3 26.7
03:15 1026 30.3 855 25.25 0.5 33 78 -2.9 26.8
03:20 1026 30.3 855 25.25 0.5 32.9 78 -3 26.6
03:25 1026 30.3 855 25.25 0.4 32.8 77 -3.2 26.2
03:30 1026 30.3 855 25.25 0.5 32.9 76 -3.3 26.1
03:35 1026 30.3 855 25.25 0.7 33.3 73 -3.6 25.5
03:40 1025 30.27 855 25.25 1 33.8 72 -3.4 25.8
03:45 1025 30.27 855 25.25 0.9 33.6 73 -3.4 25.9
03:50 1025 30.27 855 25.25 0.7 33.2 73 -3.7 25.3
03:55 1026 30.3 855 25.25 0.9 33.5 69 -4.1 24.6
04:00 1026 30.3 855 25.25 1.1 34 69 -3.9 25
04:05 1026 30.3 855 25.25 1.2 34.1 69 -4 24.8
04:10 1026 30.3 855 25.25 1.3 34.4 67 -4.1 24.5
04:15 1026 30.3 855 25.25 1.6 34.8 66 -4.2 24.4
04:20 1026 30.3 855 25.25 1.7 35 65 -4.1 24.6
04:25 1026 30.3 855 25.25 1.7 35.1 65 -4.1 24.7
04:30 1026 30.3 855 25.25 1.8 35.2 64 -4.3 24.2
04:35 1026 30.3 855 25.25 1.8 35.3 64 -4.2 24.4
04:40 1026 30.3 855 25.25 1.8 35.3 64 -4.2 24.5
04:45 1026 30.3 855 25.25 1.8 35.3 65 -4.1 24.7
04:50 1026 30.3 855 25.25 1.7 35.1 65 -4.1 24.6
04:55 1026 30.3 855 25.25 1.7 35.1 65 -4.2 24.5
05:00 1026 30.3 855 25.25 1.7 35.1 65 -4.2 24.5
05:05 1026 30.3 855 25.25 1.7 35 66 -4 24.8
05:10 1026 30.3 855 25.25 1.6 34.9 67 -3.9 24.9
05:15 1026 30.3 855 25.25 1.6 34.9 66 -4.1 24.6
05:20 1026 30.3 855 25.25 1.8 35.2 66 -4 24.9
05:25 1026 30.3 856 25.28 1.9 35.4 66 -3.9 25
05:30 1026 30.3 856 25.28 1.9 35.4 65 -3.9 25
05:35 1026 30.3 856 25.28 2.1 35.7 65 -3.9 25
05:40 1026 30.3 856 25.28 2.3 36.2 63 -4 24.7
05:45 1026 30.3 856 25.28 2.6 36.6 62 -4 24.8
05:50 1026 30.3 856 25.28 2.6 36.7 62 -3.9 25
05:55 1026 30.3 856 25.28 2.5 36.5 63 -3.9 25
06:00 1027 30.33 856 25.28 2.5 36.5 63 -3.8 25.2
06:05 1026 30.3 856 25.28 2.7 36.8 62 -3.9 25
06:10 1026 30.3 856 25.28 3 37.3 61 -3.8 25.1
06:15 1027 30.33 856 25.28 3.2 37.8 61 -3.6 25.5
06:20 1027 30.33 856 25.28 3.4 38.1 60 -3.6 25.5
06:25 1027 30.33 856 25.28 3.6 38.4 60 -3.4 25.8
06:30 1026 30.3 856 25.28 3.8 38.9 58 -3.7 25.4
06:35 1026 30.3 855 25.25 4.5 40 55 -3.9 25
06:40 1026 30.3 855 25.25 4.8 40.7 55 -3.5 25.8
06:45 1026 30.3 855 25.25 4.8 40.6 55 -3.4 25.8
06:50 1026 30.3 855 25.25 4.7 40.5 55 -3.6 25.6
06:55 1026 30.3 855 25.25 4.8 40.6 55 -3.6 25.6
07:00 1026 30.3 855 25.25 4.8 40.7 54 -3.7 25.4
07:05 1026 30.3 855 25.25 4.8 40.7 55 -3.4 25.9
07:10 1026 30.3 855 25.25 4.6 40.3 57 -3.2 26.2
07:15 1026 30.3 855 25.25 4 39.2 60 -3.1 26.4
07:20 1026 30.3 855 25.25 3.5 38.3 61 -3.3 26
07:25 1026 30.3 855 25.25 3.7 38.7 58 -3.7 25.3
07:30 1026 30.3 855 25.25 3.9 39 59 -3.5 25.8
07:35 1026 30.3 855 25.25 3.7 38.7 58 -3.7 25.4
07:40 1026 30.3 855 25.25 3.9 39.1 58 -3.6 25.5
07:45 1026 30.3 855 25.25 4.1 39.3 57 -3.6 25.6
07:50 1026 30.3 855 25.25 4.3 39.8 56 -3.7 25.4
07:55 1026 30.3 855 25.25 4.5 40 56 -3.6 25.5
08:00 1026 30.3 855 25.25 4.6 40.2 55 -3.7 25.4
08:05 1026 30.3 855 25.25 4.6 40.3 56 -3.5 25.6
08:10 1026 30.3 855 25.25 4.6 40.2 55 -3.6 25.5
08:15 1026 30.3 855 25.25 4.6 40.3 55 -3.6 25.5
08:20 1026 30.3 855 25.25 4.6 40.3 55 -3.6 25.6
08:25 1026 30.3 855 25.25 4.5 40.2 56 -3.4 25.9
08:30 1026 30.3 855 25.25 4.5 40 57 -3.4 25.9
08:35 1026 30.3 855 25.25 4.3 39.8 57 -3.4 26
08:40 1026 30.3 855 25.25 4.3 39.8 58 -3.3 26.1
08:45 1026 30.3 855 25.25 4.2 39.6 58 -3.4 25.9
08:50 1026 30.3 855 25.25 4.2 39.5 57 -3.5 25.7
08:55 1026 30.3 855 25.25 4.6 40.3 53 -4.2 24.5
09:00 1026 30.3 855 25.25 5.1 41.2 54 -3.5 25.7
09:05 1026 30.3 855 25.25 4.9 40.8 54 -3.5 25.7
09:10 1026 30.3 855 25.25 4.9 40.9 54 -3.5 25.7
09:15 1026 30.3 855 25.25 5 41 55 -3.3 26
09:20 1026 30.3 855 25.25 5.3 41.6 54 -3.3 26.1
09:25 1026 30.3 855 25.25 5.5 41.8 53 -3.3 26.1
09:30 1026 30.3 855 25.25 5.7 42.3 53 -3.2 26.2
09:35 1026 30.3 855 25.25 6 42.9 50 -3.5 25.7
09:40 1026 30.3 855 25.25 6.5 43.6 49 -3.4 25.8
09:45 1026 30.3 855 25.25 6.7 44 48 -3.5 25.6
09:50 1026 30.3 855 25.25 7 44.5 47 -3.5 25.8
09:55 1026 30.3 855 25.25 6.9 44.4 49 -3.1 26.4
10:00 1026 30.3 855 25.25 6.5 43.7 50 -3.1 26.4
10:05 1026 30.3 855 25.25 6.3 43.3 50 -3.3 26.1
10:10 1025 30.27 855 25.25 6.3 43.3 51 -3.1 26.4
10:15 1025 30.27 855 25.25 6.3 43.4 51 -3.1 26.4
10:20 1025 30.27 855 25.25 6.4 43.5 51 -3.1 26.5
10:25 1025 30.27 855 25.25 6.7 44.1 50 -2.8 26.9
10:30 1026 30.3 855 25.25 6.8 44.3 51 -2.6 27.3
10:35 1026 30.3 855 25.25 6.8 44.2 50 -3 26.6
10:40 1026 30.3 855 25.25 7 44.6 50 -2.7 27.1
10:45 1026 30.3 855 25.25 5.9 42.7 52 -3.1 26.5
10:50 1026 30.3 855 25.25 5.8 42.5 52 -3.3 26
10:55 1026 30.3 855 25.25 6.2 43.1 51 -3.1 26.3
11:00 1026 30.3 855 25.25 6.6 43.9 49 -3.3 26.1
11:05 1026 30.3 855 25.25 7.3 45.1 48 -3 26.6
11:10 1026 30.3 855 25.25 7.4 45.4 47 -3.2 26.3
11:15 1026 30.3 855 25.25 7.5 45.4 47 -3.1 26.4
11:20 1026 30.3 855 25.25 7.6 45.8 48 -2.7 27.2
11:25 1026 30.3 855 25.25 7.7 45.8 47 -3 26.7
11:30 1026 30.3 855 25.25 7.4 45.3 48 -2.8 27
11:35 1026 30.3 855 25.25 7 44.6 50 -2.6 27.3
11:40 1026 30.3 855 25.25 6.8 44.3 50 -2.9 26.8
11:45 1026 30.3 855 25.25 7 44.6 49 -2.9 26.8
11:50 1026 30.3 855 25.25 7.4 45.4 48 -2.9 26.7
11:55 1026 30.3 855 25.25 7.7 45.9 47 -2.9 26.7
12:00 1026 30.3 855 25.25 7.9 46.2 46 -2.9 26.8
12:05 1026 30.3 855 25.25 8.1 46.6 45 -2.9 26.7
12:10 1026 30.3 855 25.25 7.8 46.1 47 -2.9 26.8
12:15 1026 30.3 855 25.25 8.1 46.6 47 -2.6 27.3
12:20 1026 30.3 855 25.25 7.8 46 46 -3 26.6
12:25 1026 30.3 855 25.25 8.2 46.8 45 -2.9 26.8
12:30 1026 30.3 855 25.25 7.4 45.2 49 -2.7 27.1
12:35 1026 30.3 855 25.25 7.5 45.4 48 -2.8 26.9
12:40 1026 30.3 855 25.25 8.3 46.9 45 -3 26.6
12:45 1026 30.3 855 25.25 8.2 46.8 47 -2.5 27.5
12:50 1026 30.3 855 25.25 7.9 46.2 46 -3.1 26.4
12:55 1026 30.3 855 25.25 8.9 48.1 45 -2.3 27.8
13:00 1026 30.3 855 25.25 9.7 49.4 43 -2.2 28
13:05 1026 30.3 855 25.25 10 50 41 -2.6 27.3
13:10 1026 30.3 855 25.25 9.8 49.6 43 -2.2 28.1
13:15 1026 30.3 855 25.25 9.2 48.5 45 -2.2 28
13:20 1026 30.3 855 25.25 9.2 48.6 43 -2.7 27.2
13:25 1026 30.3 855 25.25 9.1 48.3 45 -2.1 28.2
13:30 1026 30.3 855 25.25 9.1 48.3 44 -2.6 27.4
13:35 1026 30.3 855 25.25 8.3 47 47 -2.3 27.8
13:40 1026 30.3 855 25.25 7.9 46.2 47 -2.7 27.1
13:45 1025 30.27 855 25.25 8.1 46.6 46 -2.7 27.2
13:50 1025 30.27 855 25.25 8.1 46.5 46 -2.7 27.1
13:55 1026 30.3 855 25.25 8.3 46.9 47 -2.5 27.5
14:00 1026 30.3 855 25.25 8.3 46.9 47 -2.5 27.5
14:05 1026 30.3 855 25.25 8.1 46.5 47 -2.5 27.6
14:10 1026 30.3 855 25.25 7.9 46.3 47 -2.5 27.4
14:15 1026 30.3 855 25.25 7.8 46 47 -2.8 27
14:20 1026 30.3 855 25.25 7.9 46.2 47 -2.8 27
14:25 1026 30.3 855 25.25 8.3 46.9 46 -2.7 27.2
14:30 1026 30.3 855 25.25 8.4 47.1 45 -2.7 27.1
14:35 1026 30.3 855 25.25 8.3 47 46 -2.7 27.1
14:40 1026 30.3 855 25.25 8.1 46.6 46 -2.8 27
14:45 1026 30.3 855 25.25 8.3 46.9 46 -2.8 27
14:50 1026 30.3 855 25.25 8.5 47.2 46 -2.6 27.3
14:55 1026 30.3 855 25.25 8.7 47.6 45 -2.6 27.3
15:00 1026 30.3 855 25.25 8.4 47.1 47 -2.1 28.2
15:05 1026 30.3 855 25.25 7.4 45.4 49 -2.5 27.6
15:10 1026 30.3 855 25.25 7.1 44.9 50 -2.6 27.3
15:15 1026 30.3 855 25.25 7.1 44.9 50 -2.7 27.1
15:20 1026 30.3 855 25.25 7.2 45 49 -2.8 27
15:25 1026 30.3 855 25.25 7.3 45.1 49 -2.8 27
15:30 1026 30.3 855 25.25 7.5 45.5 48 -2.6 27.2
15:35 1026 30.3 855 25.25 7.9 46.1 47 -2.7 27.1
15:40 1026 30.3 855 25.25 8 46.4 46 -2.8 27
15:45 1026 30.3 855 25.25 8 46.3 47 -2.7 27.1
15:50 1026 30.3 855 25.25 8.1 46.6 47 -2.6 27.4
15:55 1026 30.3 855 25.25 8.3 47 46 -2.6 27.3
16:00 1026 30.3 855 25.25 8.6 47.4 46 -2.3 27.9
16:05 1026 30.3 855 25.25 8.5 47.2 46 -2.6 27.3
16:10 1026 30.3 855 25.25 8.5 47.3 46 -2.5 27.6
16:15 1026 30.3 855 25.25 8.6 47.4 46 -2.3 27.9
16:20 1026 30.3 855 25.25 8.4 47.1 48 -2.1 28.2
16:25 1026 30.3 855 25.25 8.1 46.5 48 -2.2 28.1
16:30 1026 30.3 855 25.25 7.9 46.2 47 -2.7 27.1
16:35 1025 30.27 855 25.25 8.2 46.7 46 -2.6 27.3
16:40 1025 30.27 855 25.25 8.3 46.9 46 -2.6 27.3
16:45 1025 30.27 855 25.25 8.1 46.6 46 -2.9 26.7
16:50 1025 30.27 855 25.25 8.2 46.7 45 -3 26.7
16:55 1025 30.27 855 25.25 8.2 46.8 45 -3.1 26.5
17:00 1026 30.3 855 25.25 8.5 47.3 44 -3.1 26.4
17:05 1025 30.27 855 25.25 8.6 47.4 45 -2.6 27.4
17:10 1025 30.27 855 25.25 8.2 46.7 46 -2.6 27.3
17:15 1026 30.3 855 25.25 8.2 46.8 46 -2.7 27.1
17:20 1026 30.3 855 25.25 8.3 47 45 -2.7 27.1
17:25 1025 30.27 855 25.25 8.2 46.8 45 -2.8 26.9
17:30 1026 30.3 855 25.25 8.4 47 46 -2.6 27.4
17:35 1026 30.3 855 25.25 8.3 46.9 47 -2.2 28
17:40 1025 30.27 855 25.25 8 46.5 47 -2.7 27.1
17:45 1026 30.3 855 25.25 8 46.4 47 -2.5 27.5
17:50 1025 30.27 855 25.25 8.1 46.6 46 -2.8 26.9
17:55 1026 30.3 855 25.25 8.3 47 44 -3.2 26.3
18:00 1026 30.3 855 25.25 8.7 47.7 43 -3.3 26.1
18:05 1026 30.3 855 25.25 9 48.2 42 -3.2 26.2
18:10 1026 30.3 855 25.25 9.1 48.3 43 -2.7 27.2
18:15 1026 30.3 855 25.25 8.9 48 43 -2.9 26.8
18:20 1026 30.3 855 25.25 8.8 47.9 44 -2.8 27
18:25 1026 30.3 855 25.25 8.7 47.7 44 -2.8 27
18:30 1026 30.3 855 25.25 8.6 47.4 45 -2.6 27.3
18:35 1026 30.3 855 25.25 8.3 47 47 -2.4 27.6
18:40 1026 30.3 855 25.25 8.3 46.9 47 -2.5 27.5
18:45 1026 30.3 855 25.25 8.3 47 47 -2.2 28
18:50 1026 30.3 855 25.25 8 46.4 49 -2.2 28.1
18:55 1026 30.3 855 25.25 7.7 45.9 49 -2.2 28.1
19:00 1026 30.3 855 25.25 7.6 45.7 49 -2.3 27.9
19:05 1026 30.3 855 25.25 7.6 45.8 49 -2.3 27.9
19:10 1026 30.3 855 25.25 7.6 45.8 49 -2.4 27.8
19:15 1026 30.3 855 25.25 7.6 45.6 49 -2.4 27.7
19:20 1026 30.3 855 25.25 7.6 45.8 48 -2.5 27.4
19:25 1026 30.3 855 25.25 7.7 45.8 49 -2.5 27.6
19:30 1026 30.3 855 25.25 7.6 45.7 48 -2.6 27.3
19:35 1026 30.3 855 25.25 7.6 45.7 48 -2.7 27.2
19:40 1026 30.3 855 25.25 7.7 45.8 48 -2.5 27.5
19:45 1026 30.3 855 25.25 7.5 45.4 50 -2.3 27.9
19:50 1026 30.3 855 25.25 7.2 45 51 -2.2 28
19:55 1026 30.3 855 25.25 7 44.6 51 -2.5 27.6
20:00 1026 30.3 855 25.25 7 44.5 51 -2.5 27.5
20:05 1026 30.3 855 25.25 7 44.6 51 -2.5 27.5
20:10 1026 30.3 855 25.25 7 44.7 50 -2.8 27
20:15 1026 30.3 855 25.25 7.2 45 47 -3.3 26
20:20 1026 30.3 855 25.25 7.8 46 44 -3.7 25.4
20:25 1026 30.3 855 25.25 8.4 47.1 42 -3.8 25.2
20:30 1026 30.3 855 25.25 8.6 47.5 42 -3.5 25.7
20:35 1026 30.3 855 25.25 8.6 47.4 42 -3.7 25.3
20:40 1026 30.3 855 25.25 8.7 47.7 41 -3.7 25.3
20:45 1026 30.3 855 25.25 8.7 47.7 41 -3.7 25.4
20:50 1026 30.3 855 25.25 8.5 47.3 44 -2.9 26.7
20:55 1026 30.3 855 25.25 7.9 46.2 47 -2.8 26.9
21:00 1026 30.3 855 25.25 7.6 45.7 47 -3.1 26.5
21:05 1026 30.3 855 25.25 7.7 45.9 46 -3.3 26.1
21:10 1026 30.3 855 25.25 7.8 46 46 -3.1 26.5
21:15 1026 30.3 855 25.25 7.7 45.8 46 -3.1 26.5
21:20 1026 30.3 855 25.25 7.6 45.6 47 -3.1 26.5
21:25 1026 30.3 855 25.25 7.5 45.5 48 -2.9 26.8
21:30 1026 30.3 855 25.25 7.4 45.2 48 -3 26.6
21:35 1026 30.3 855 25.25 7.3 45.2 48 -3.1 26.4
21:40 1026 30.3 855 25.25 7.3 45.2 48 -2.9 26.8
21:45 1026 30.3 855 25.25 7.3 45.1 48 -3 26.7
21:50 1026 30.3 855 25.25 7.2 45 49 -2.8 27
21:55 1026 30.3 855 25.25 7 44.6 50 -2.8 27
22:00 1026 30.3 855 25.25 6.7 44.1 51 -2.7 27.1
22:05 1026 30.3 855 25.25 6.6 43.9 51 -2.7 27.1
22:10 1026 30.3 855 25.25 6.5 43.7 51 -3 26.6
22:15 1026 30.3 855 25.25 6.6 44 49 -3.2 26.2
22:20 1026 30.3 856 25.28 6.9 44.4 49 -3 26.6
22:25 1026 30.3 856 25.28 6.9 44.4 49 -3.1 26.4
22:30 1026 30.3 856 25.28 7 44.6 49 -3.1 26.5
22:35 1026 30.3 856 25.28 7 44.6 49 -3 26.6
22:40 1026 30.3 856 25.28 6.9 44.4 49 -3.1 26.4
22:45 1026 30.3 856 25.28 6.8 44.3 50 -2.9 26.8
22:50 1026 30.3 856 25.28 6.7 44 50 -2.9 26.8
22:55 1026 30.3 856 25.28 6.5 43.7 51 -2.9 26.8
23:00 1026 30.3 856 25.28 6.3 43.4 51 -3 26.6
23:05 1027 30.33 856 25.28 6.3 43.4 51 -3 26.5
23:10 1027 30.33 856 25.28 6.2 43.2 52 -3 26.6
23:15 1027 30.33 856 25.28 6.1 43 53 -2.9 26.8
23:20 1027 30.33 856 25.28 6 42.8 52 -3 26.6
23:25 1027 30.33 856 25.28 6 42.9 52 -3 26.6
23:30 1027 30.33 856 25.28 6.2 43.2 51 -3.3 26.1
23:35 1027 30.33 856 25.28 6.4 43.6 50 -3.1 26.4
23:40 1027 30.33 856 25.28 6.4 43.5 51 -3.1 26.5
23:45 1027 30.33 856 25.28 6.4 43.5 49 -3.4 25.8
23:50 1027 30.33 856 25.28 6.6 43.9 50 -3 26.7
23:55 1027 30.33 856 25.28 6.4 43.5 51 -3.1 26.5
24:00 1027 30.33 856 25.28 6.2 43.1 51 -3.1 26.5